Time;durP1;ratioP1;P1;durP2;ratioP2;P2;SDS_P1;SDS_P2;PMS_P1;PMS_P2;Temp;Humidity;BMP_temperature;BMP_pressure;BME280_temperature;BME280_humidity;BME280_pressure;Samples;Min_cycle;Max_cycle;Signal;HPM_P1;HPM_P2
2022/02/05 00:02:28;;;;;;;40.65;21.20;;;12.00;92.10;;;;;;5111891;28;20074;-80
2022/02/05 00:05:54;;;;;;;44.67;22.55;;;12.10;92.30;;;;;;5111683;28;20050;-82
2022/02/05 00:12:38;;;;;;;41.85;24.05;;;12.00;92.40;;;;;;5110844;28;20039;-80
2022/02/05 00:45:40;;;;;;;37.80;21.63;;;12.10;92.20;;;;;;5103017;28;20047;-80
2022/02/05 00:48:45;;;;;;;45.83;22.85;;;12.10;92.10;;;;;;5115328;28;20121;-80
2022/02/05 00:51:59;;;;;;;36.67;21.40;;;12.00;92.20;;;;;;5115421;28;20043;-80
2022/02/05 00:55:09;;;;;;;36.55;21.58;;;12.10;92.30;;;;;;5115339;28;20051;-80
2022/02/05 00:58:13;;;;;;;40.22;19.95;;;12.00;92.20;;;;;;5102946;28;20059;-80
2022/02/05 01:01:17;;;;;;;36.58;20.48;;;12.00;92.30;;;;;;5115137;28;20038;-80
2022/02/05 01:04:20;;;;;;;46.45;21.85;;;12.00;92.30;;;;;;5114906;28;20058;-80
2022/02/05 01:07:26;;;;;;;45.75;22.38;;;12.10;92.30;;;;;;5115149;28;20039;-80
2022/02/05 01:10:31;;;;;;;40.03;21.80;;;12.00;92.50;;;;;;5114026;28;20058;-80
2022/02/05 01:13:35;;;;;;;42.97;22.98;;;12.00;92.50;;;;;;5115023;28;20038;-80
2022/02/05 01:22:58;;;;;;;40.58;21.67;;;11.80;92.80;;;;;;5113744;28;20521;-80
2022/02/05 01:26:12;;;;;;;39.85;20.33;;;11.80;92.70;;;;;;5114835;28;20039;-80
2022/02/05 01:29:28;;;;;;;37.78;20.50;;;11.80;92.80;;;;;;5114743;28;20051;-80
2022/02/05 01:32:35;;;;;;;37.55;20.83;;;11.80;92.60;;;;;;5114503;28;20047;-80
2022/02/05 01:35:56;;;;;;;39.40;21.58;;;11.90;92.70;;;;;;5114447;28;20486;-80
2022/02/05 01:52:44;;;;;;;43.03;24.58;;;11.70;93.10;;;;;;5114171;28;20043;-80
2022/02/05 02:05:54;;;;;;;43.83;27.80;;;11.60;93.10;;;;;;5113841;28;20570;-80
2022/02/05 02:12:25;;;;;;;53.17;30.38;;;11.60;93.40;;;;;;5114107;28;20047;-82
2022/02/05 02:16:50;;;;;;;52.10;29.67;;;11.60;93.50;;;;;;5113039;28;20399;-80
2022/02/05 02:19:18;;;;;;;47.20;28.02;;;11.50;93.40;;;;;;5113926;28;20426;-80
2022/02/05 02:22:31;;;;;;;48.42;29.50;;;11.40;93.80;;;;;;5113541;28;20051;-82
2022/02/05 02:31:50;;;;;;;48.22;28.45;;;11.40;93.80;;;;;;5113570;28;20054;-80
2022/02/05 02:35:01;;;;;;;49.05;28.08;;;11.30;93.90;;;;;;5112276;28;20051;-80
2022/02/05 02:38:11;;;;;;;50.90;30.02;;;11.20;93.80;;;;;;5112968;28;20395;-80
2022/02/05 02:41:24;;;;;;;55.08;29.95;;;11.20;94.10;;;;;;5112870;28;20047;-80
2022/02/05 02:44:29;;;;;;;44.25;26.73;;;11.20;94.00;;;;;;5113310;28;20058;-80
2022/02/05 02:47:34;;;;;;;47.08;29.40;;;11.10;94.20;;;;;;5112932;28;20054;-81
2022/02/05 02:57:28;;;;;;;50.10;27.92;;;10.80;94.70;;;;;;5112997;28;20042;-81
2022/02/05 03:00:33;;;;;;;44.38;30.02;;;10.80;94.60;;;;;;5112970;28;20042;-81
2022/02/05 03:03:37;;;;;;;52.03;27.00;;;10.70;94.60;;;;;;5111609;28;20089;-81
2022/02/05 03:06:41;;;;;;;56.58;29.52;;;10.70;95.00;;;;;;5112487;28;20391;-81
2022/02/05 03:09:46;;;;;;;43.85;27.13;;;10.80;94.70;;;;;;5112731;28;20046;-81
2022/02/05 03:12:51;;;;;;;40.55;27.30;;;10.60;94.90;;;;;;5112285;28;20042;-81
2022/02/05 03:15:55;;;;;;;49.53;27.73;;;10.70;94.90;;;;;;5112536;28;20375;-81
2022/02/05 03:20:01;;;;;;;50.15;27.58;;;10.60;94.90;;;;;;5112578;28;20039;-81
2022/02/05 03:23:11;;;;;;;41.65;27.00;;;10.50;95.20;;;;;;5112363;28;20054;-81
2022/02/05 03:26:16;;;;;;;50.83;26.83;;;10.50;95.10;;;;;;5112491;28;20379;-81
2022/02/05 03:29:21;;;;;;;43.53;27.13;;;10.40;95.30;;;;;;5112056;28;20062;-81
2022/02/05 03:32:26;;;;;;;47.10;27.58;;;10.40;95.40;;;;;;5111152;28;20062;-81
2022/02/05 03:35:36;;;;;;;47.15;26.85;;;10.40;95.30;;;;;;5112419;28;20038;-81
2022/02/05 03:38:40;;;;;;;45.88;26.95;;;10.30;95.30;;;;;;5113293;28;20368;-80
2022/02/05 03:41:53;;;;;;;45.67;27.65;;;10.30;95.40;;;;;;5113914;28;20395;-81
2022/02/05 03:44:57;;;;;;;41.72;25.80;;;10.30;95.60;;;;;;5112960;28;20046;-80
2022/02/05 03:48:04;;;;;;;42.40;25.85;;;10.30;95.50;;;;;;5111828;28;20054;-81
2022/02/05 03:51:09;;;;;;;41.15;24.63;;;10.40;95.50;;;;;;5111799;28;20039;-81
2022/02/05 03:54:18;;;;;;;42.10;25.98;;;10.40;95.60;;;;;;5111106;28;20046;-81
2022/02/05 03:57:27;;;;;;;43.53;25.73;;;10.50;95.70;;;;;;5111463;28;20042;-80
2022/02/05 04:00:32;;;;;;;55.95;25.65;;;10.50;95.70;;;;;;5111562;28;20043;-80
2022/02/05 04:03:37;;;;;;;42.13;24.58;;;10.50;95.80;;;;;;5098954;28;20066;-80
2022/02/05 04:06:44;;;;;;;45.13;26.30;;;10.60;95.80;;;;;;5111833;28;20121;-80
2022/02/05 04:09:52;;;;;;;44.80;25.20;;;10.60;95.60;;;;;;5110358;28;20514;-80
2022/02/05 04:16:24;;;;;;;43.13;26.75;;;10.70;95.50;;;;;;5109738;28;20042;-80
2022/02/05 04:20:40;;;;;;;;;;;;;;;;;;;;;
2022/02/05 04:24:10;;;;;;;46.75;26.90;;;10.80;95.70;;;;;;5066851;28;20062;-81
2022/02/05 04:27:29;;;;;;;40.35;23.67;;;10.80;95.60;;;;;;5111698;28;20047;-80
2022/02/05 04:30:37;;;;;;;44.80;24.15;;;10.80;95.20;;;;;;5110185;28;20113;-80
2022/02/05 04:33:45;;;;;;;38.53;24.35;;;10.70;95.30;;;;;;5111615;28;20050;-80
2022/02/05 04:37:12;;;;;;;45.40;23.20;;;10.60;95.40;;;;;;5110268;28;20050;-80
2022/02/05 04:40:38;;;;;;;38.05;21.77;;;10.60;95.60;;;;;;5110981;28;20414;-80
2022/02/05 04:48:10;;;;;;;43.25;21.52;;;10.30;95.80;;;;;;5111023;28;20051;-80
2022/02/05 04:51:40;;;;;;;42.38;23.15;;;10.30;95.90;;;;;;5111122;28;20054;-80
2022/02/05 04:58:26;;;;;;;44.55;22.25;;;10.30;96.20;;;;;;5111318;28;20047;-80
2022/02/05 05:04:54;;;;;;;46.70;26.83;;;10.30;96.20;;;;;;5111234;28;20066;-79
2022/02/05 05:08:30;;;;;;;46.83;27.58;;;10.20;96.30;;;;;;5110915;28;20042;-80
2022/02/05 05:11:50;;;;;;;49.38;31.02;;;10.30;96.30;;;;;;5111049;28;20046;-82
2022/02/05 05:22:01;;;;;;;55.17;29.80;;;10.30;96.50;;;;;;5036534;28;20132;-80
2022/02/05 05:25:06;;;;;;;47.72;28.67;;;10.20;96.60;;;;;;5036629;28;20052;-82
2022/02/05 05:28:10;;;;;;;47.58;28.90;;;10.10;96.80;;;;;;5112337;28;20039;-82
2022/02/05 05:31:15;;;;;;;49.80;28.23;;;10.10;96.70;;;;;;5113871;28;20042;-81
2022/02/05 05:34:20;;;;;;;43.30;25.58;;;10.10;96.80;;;;;;5114390;28;20058;-81
2022/02/05 05:37:25;;;;;;;46.05;24.27;;;10.00;96.50;;;;;;5114346;28;20042;-80
2022/02/05 05:40:41;;;;;;;39.15;24.40;;;9.90;96.40;;;;;;5114185;28;20038;-81
2022/02/05 05:43:59;;;;;;;51.40;30.05;;;9.90;96.60;;;;;;5114133;28;20055;-82
2022/02/05 05:53:45;;;;;;;41.47;22.70;;;9.80;96.30;;;;;;5114096;28;20038;-82
2022/02/05 05:56:50;;;;;;;42.15;21.77;;;9.80;96.20;;;;;;5114241;28;20050;-80
2022/02/05 05:59:54;;;;;;;39.70;21.95;;;9.70;96.50;;;;;;5113927;28;20038;-81
2022/02/05 06:02:59;;;;;;;36.55;21.55;;;9.60;96.60;;;;;;5113880;28;20046;-82
2022/02/05 06:06:07;;;;;;;39.58;21.98;;;9.50;96.80;;;;;;5114057;28;20055;-80
2022/02/05 06:09:11;;;;;;;35.38;21.65;;;9.60;96.80;;;;;;5114003;28;20046;-78
2022/02/05 06:12:15;;;;;;;38.05;21.90;;;9.60;97.10;;;;;;5114106;28;20043;-78
2022/02/05 06:15:20;;;;;;;43.63;19.48;;;9.60;97.20;;;;;;5101284;28;20391;-78
2022/02/05 06:18:25;;;;;;;41.83;20.80;;;9.70;96.80;;;;;;5113676;28;20042;-78
2022/02/05 06:21:29;;;;;;;42.78;20.77;;;9.70;96.60;;;;;;5113701;28;20067;-78
2022/02/05 06:24:34;;;;;;;39.17;20.35;;;9.70;96.60;;;;;;5113483;28;20054;-77
2022/02/05 06:27:38;;;;;;;36.08;21.13;;;9.60;96.60;;;;;;5113718;28;20035;-78
2022/02/05 06:30:43;;;;;;;40.42;22.60;;;9.60;96.60;;;;;;5113239;28;20042;-78
2022/02/05 06:33:48;;;;;;;44.17;21.85;;;9.50;96.90;;;;;;5112803;28;20038;-78
2022/02/05 06:36:53;;;;;;;50.50;24.67;;;9.60;97.30;;;;;;5112520;28;20433;-78
2022/02/05 06:39:57;;;;;;;54.10;25.90;;;9.60;97.30;;;;;;5112359;28;20039;-78
2022/02/05 06:43:02;;;;;;;57.50;26.77;;;9.70;97.50;;;;;;5113013;28;20058;-77
2022/02/05 06:46:06;;;;;;;61.75;28.98;;;9.80;97.60;;;;;;5113189;28;20042;-78
2022/02/05 06:49:11;;;;;;;42.40;23.25;;;9.90;97.30;;;;;;5112910;28;20051;-81
2022/02/05 06:52:16;;;;;;;56.10;23.67;;;10.00;97.10;;;;;;5112758;28;20043;-81
2022/02/05 06:55:19;;;;;;;47.13;22.55;;;10.10;96.90;;;;;;5113009;28;20062;-79
2022/02/05 06:58:23;;;;;;;47.28;21.65;;;10.20;96.80;;;;;;5112987;28;20039;-80
2022/02/05 07:01:27;;;;;;;35.47;19.02;;;10.30;96.60;;;;;;5112873;28;20058;-80
2022/02/05 07:04:32;;;;;;;33.42;17.77;;;10.30;96.70;;;;;;5112467;28;20411;-80
2022/02/05 07:07:37;;;;;;;31.10;17.65;;;10.40;96.70;;;;;;5112810;28;20043;-81
2022/02/05 07:10:41;;;;;;;34.95;19.13;;;10.50;96.60;;;;;;5112755;28;20395;-78
2022/02/05 07:13:45;;;;;;;36.75;19.05;;;10.60;96.30;;;;;;5112814;28;20047;-80
2022/02/05 07:17:00;;;;;;;37.38;19.05;;;10.60;96.20;;;;;;5112278;28;20495;-81
2022/02/05 07:29:49;;;;;;;35.95;18.40;;;10.70;96.70;;;;;;5112391;28;20042;-78
2022/02/05 07:32:54;;;;;;;44.88;18.73;;;10.70;96.80;;;;;;5112525;28;20071;-76
2022/02/05 07:35:58;;;;;;;35.30;17.95;;;10.80;96.80;;;;;;5112113;28;20059;-73
2022/02/05 07:39:03;;;;;;;43.55;19.23;;;10.80;97.00;;;;;;5111761;28;20039;-76
2022/02/05 07:42:08;;;;;;;37.70;17.55;;;11.00;97.10;;;;;;5111444;28;20592;-78
2022/02/05 07:45:12;;;;;;;40.78;19.80;;;11.10;96.90;;;;;;5110587;28;20616;-72
2022/02/05 07:48:16;;;;;;;37.25;18.63;;;11.10;97.00;;;;;;5111463;28;20055;-73
2022/02/05 07:51:20;;;;;;;33.53;18.33;;;11.20;97.30;;;;;;5111748;28;20639;-72
2022/02/05 07:54:24;;;;;;;39.42;20.20;;;11.40;97.20;;;;;;5111802;28;20047;-72
2022/02/05 07:57:30;;;;;;;39.78;17.98;;;11.50;97.00;;;;;;5111708;28;20050;-72
2022/02/05 08:00:34;;;;;;;44.42;20.05;;;11.60;97.00;;;;;;5111768;28;20047;-74
2022/02/05 08:03:38;;;;;;;36.30;18.90;;;11.60;97.20;;;;;;5111683;28;20055;-77
2022/02/05 08:06:45;;;;;;;43.20;17.42;;;11.70;97.10;;;;;;5111572;28;20051;-76
2022/02/05 08:10:01;;;;;;;47.95;20.77;;;11.80;96.90;;;;;;5111605;28;20047;-78
2022/02/05 08:13:05;;;;;;;50.20;21.17;;;11.80;96.70;;;;;;5111751;28;20051;-82
2022/02/05 08:16:23;;;;;;;52.38;22.40;;;12.00;96.70;;;;;;5111424;28;20066;-78
2022/02/05 08:19:27;;;;;;;43.00;20.20;;;12.00;96.60;;;;;;5111372;28;20529;-79
2022/02/05 08:22:32;;;;;;;40.08;19.15;;;12.10;96.70;;;;;;5111169;28;20046;-77
2022/02/05 08:25:35;;;;;;;44.05;18.33;;;12.10;96.70;;;;;;5110661;28;20521;-79
2022/02/05 08:28:43;;;;;;;37.75;18.15;;;12.20;96.50;;;;;;5111275;28;20070;-81
2022/02/05 08:31:47;;;;;;;34.05;15.88;;;12.30;96.40;;;;;;5110706;28;20046;-79
2022/02/05 08:34:52;;;;;;;31.13;14.68;;;12.40;96.20;;;;;;5111578;28;20051;-80
2022/02/05 08:37:58;;;;;;;24.75;13.75;;;12.40;95.70;;;;;;5111810;28;20059;-80
2022/02/05 08:41:02;;;;;;;31.70;13.10;;;12.50;95.30;;;;;;5111558;28;20050;-80
2022/02/05 08:44:07;;;;;;;27.77;13.88;;;12.50;95.10;;;;;;5110105;28;20074;-79
2022/02/05 08:47:11;;;;;;;27.05;13.85;;;12.60;94.90;;;;;;5111086;28;20051;-78
2022/02/05 08:50:18;;;;;;;24.60;13.68;;;12.60;94.80;;;;;;5111458;28;20051;-79
2022/02/05 08:53:22;;;;;;;34.42;14.25;;;12.60;94.80;;;;;;5111479;28;20506;-78
2022/02/05 08:56:27;;;;;;;30.90;14.35;;;12.70;94.80;;;;;;5111445;28;20043;-78
2022/02/05 08:59:43;;;;;;;35.60;15.82;;;12.70;94.70;;;;;;5111101;28;20050;-77
2022/02/05 09:03:01;;;;;;;29.67;15.82;;;12.70;94.70;;;;;;5112934;28;20382;-79
2022/02/05 09:06:06;;;;;;;30.55;15.32;;;12.70;94.60;;;;;;5114412;28;20050;-80
2022/02/05 09:15:42;;;;;;;23.35;13.23;;;12.80;94.60;;;;;;5115807;28;20050;-80
2022/02/05 09:18:47;;;;;;;23.20;12.48;;;12.90;94.60;;;;;;5115599;28;20042;-76
2022/02/05 09:21:51;;;;;;;33.25;14.63;;;13.00;94.50;;;;;;5115920;28;20050;-79
2022/02/05 09:24:58;;;;;;;25.45;13.85;;;13.10;94.40;;;;;;5114760;28;20395;-80
2022/02/05 09:28:02;;;;;;;21.75;12.90;;;13.30;94.40;;;;;;5114527;28;20074;-77
2022/02/05 09:34:09;;;;;;;30.70;16.27;;;13.70;94.00;;;;;;5114650;28;20035;-85
2022/02/05 09:37:14;;;;;;;23.95;15.27;;;13.90;93.60;;;;;;5114435;28;20117;-81
2022/02/05 09:40:18;;;;;;;24.63;14.77;;;14.20;93.20;;;;;;5113429;28;20039;-83
2022/02/05 09:43:25;;;;;;;29.55;14.85;;;14.40;92.70;;;;;;5114676;28;20050;-78
2022/02/05 09:46:29;;;;;;;30.45;14.70;;;14.50;92.10;;;;;;5113057;28;20043;-78
2022/02/05 09:49:33;;;;;;;28.38;15.95;;;14.50;91.90;;;;;;5114234;28;20051;-79
2022/02/05 09:52:37;;;;;;;25.88;15.65;;;14.50;91.70;;;;;;5114398;28;20474;-77
2022/02/05 09:55:42;;;;;;;27.42;15.35;;;14.50;91.80;;;;;;5114189;28;20050;-78
2022/02/05 09:58:46;;;;;;;30.88;15.80;;;14.50;91.80;;;;;;5113992;28;20574;-79
2022/02/05 10:02:10;;;;;;;30.13;16.67;;;14.50;91.70;;;;;;5114062;28;20043;-78
2022/02/05 10:05:21;;;;;;;29.70;16.65;;;14.60;91.60;;;;;;5113133;28;20066;-79
2022/02/05 10:08:25;;;;;;;32.72;16.77;;;14.50;91.60;;;;;;5113925;28;20031;-79
2022/02/05 10:11:29;;;;;;;21.15;13.05;;;14.60;91.40;;;;;;5113813;28;20051;-79
2022/02/05 10:14:34;;;;;;;19.92;11.30;;;14.80;91.00;;;;;;5112721;28;20043;-78
2022/02/05 10:17:44;;;;;;;19.65;9.90;;;14.90;90.60;;;;;;5112799;28;20058;-80
2022/02/05 10:20:48;;;;;;;20.45;8.77;;;15.00;90.10;;;;;;5112998;28;20113;-77
2022/02/05 10:23:56;;;;;;;22.52;9.35;;;15.20;88.10;;;;;;5113505;28;20058;-77
2022/02/05 10:27:00;;;;;;;18.13;7.85;;;15.30;86.10;;;;;;5113811;28;20395;-79
2022/02/05 10:30:09;;;;;;;16.13;7.07;;;15.30;84.90;;;;;;5113557;28;20038;-80
2022/02/05 10:33:35;;;;;;;22.88;8.65;;;15.50;84.40;;;;;;5112163;28;20038;-80
2022/02/05 10:36:44;;;;;;;14.63;7.65;;;15.90;83.90;;;;;;5113607;28;20387;-79
2022/02/05 10:43:07;;;;;;;11.70;4.45;;;16.40;81.00;;;;;;5112695;28;20498;-83
2022/02/05 10:46:12;;;;;;;9.75;4.50;;;16.70;79.30;;;;;;5112532;28;20050;-84
2022/02/05 10:49:39;;;;;;;15.18;6.13;;;16.70;78.90;;;;;;5112910;28;20051;-80
2022/02/05 10:52:50;;;;;;;16.27;4.57;;;16.70;78.40;;;;;;5113035;28;20055;-81
2022/02/05 10:56:07;;;;;;;13.80;4.40;;;16.40;78.90;;;;;;5112120;28;20039;-78
2022/02/05 10:59:18;;;;;;;13.70;4.30;;;16.20;80.30;;;;;;5111364;28;20047;-78
2022/02/05 11:05:57;;;;;;;13.30;4.40;;;16.00;82.80;;;;;;5112839;28;20054;-80
2022/02/05 11:09:01;;;;;;;13.27;4.10;;;16.00;83.40;;;;;;5112501;28;20426;-80
2022/02/05 11:19:02;;;;;;;7.90;3.88;;;15.90;84.90;;;;;;5112019;28;20647;-78
2022/02/05 11:22:06;;;;;;;14.77;5.00;;;15.90;85.70;;;;;;5112275;28;20049;-79
2022/02/05 11:25:12;;;;;;;12.27;5.20;;;15.80;85.70;;;;;;5111872;28;20054;-78
2022/02/05 11:28:46;;;;;;;14.07;4.90;;;15.80;86.50;;;;;;5111195;28;20039;-79
2022/02/05 11:31:54;;;;;;;11.57;5.10;;;15.70;87.20;;;;;;5112423;28;20046;-79
2022/02/05 11:35:10;;;;;;;18.77;6.78;;;15.80;87.60;;;;;;5111282;28;20399;-80
2022/02/05 11:38:26;;;;;;;15.43;6.40;;;15.80;88.00;;;;;;5112238;28;20643;-78
2022/02/05 11:41:36;;;;;;;19.65;6.97;;;15.80;88.30;;;;;;5112352;28;20043;-78
2022/02/05 11:44:40;;;;;;;11.95;5.35;;;15.90;88.20;;;;;;5111715;28;20097;-81
2022/02/05 11:47:44;;;;;;;14.77;5.25;;;15.90;87.90;;;;;;5111128;28;20047;-82
2022/02/05 11:51:22;;;;;;;15.75;5.07;;;16.00;87.90;;;;;;5112239;28;20051;-83
2022/02/05 11:54:27;;;;;;;12.52;4.95;;;16.00;86.90;;;;;;5099345;28;20497;-82
2022/02/05 11:57:44;;;;;;;11.45;4.70;;;16.00;86.90;;;;;;5111193;28;20047;-81
2022/02/05 12:00:56;;;;;;;25.33;6.13;;;16.00;87.10;;;;;;5110722;28;20496;-79
2022/02/05 12:04:11;;;;;;;23.55;5.18;;;16.00;87.20;;;;;;5111622;28;20055;-79
2022/02/05 12:07:18;;;;;;;25.30;5.80;;;16.00;87.90;;;;;;5111877;28;20395;-78
2022/02/05 12:10:45;;;;;;;19.25;4.22;;;15.80;88.50;;;;;;5099049;28;20050;-81
2022/02/05 12:14:10;;;;;;;25.88;4.75;;;15.80;89.10;;;;;;5111549;28;20432;-79
2022/02/05 12:17:17;;;;;;;13.98;4.03;;;15.70;89.60;;;;;;5110295;28;20054;-79
2022/02/05 12:20:26;;;;;;;12.00;3.90;;;15.60;89.90;;;;;;5111758;28;20035;-79
2022/02/05 12:26:49;;;;;;;30.30;10.90;;;15.40;90.10;;;;;;5111572;28;20051;-79
2022/02/05 12:29:53;;;;;;;23.20;7.90;;;15.40;90.20;;;;;;5111679;28;20054;-79
2022/02/05 12:32:57;;;;;;;17.98;6.28;;;15.30;90.20;;;;;;5111320;28;20039;-79
2022/02/05 12:36:01;;;;;;;17.58;5.82;;;15.30;90.40;;;;;;5111607;28;20225;-79
2022/02/05 12:39:08;;;;;;;16.30;5.43;;;15.20;90.50;;;;;;5115685;28;20042;-79
2022/02/05 12:42:14;;;;;;;16.02;6.05;;;15.20;90.70;;;;;;5115766;28;20046;-79
2022/02/05 12:45:24;;;;;;;23.13;8.32;;;15.20;90.80;;;;;;5115596;28;20056;-79
2022/02/05 12:48:29;;;;;;;19.23;8.15;;;15.20;90.90;;;;;;5114333;28;20054;-79
2022/02/05 12:51:33;;;;;;;21.17;7.57;;;15.10;91.10;;;;;;5115617;28;20047;-79
2022/02/05 12:54:50;;;;;;;18.27;8.05;;;15.10;91.30;;;;;;5115847;28;20047;-79
2022/02/05 12:58:01;;;;;;;23.55;9.57;;;15.00;91.40;;;;;;5115584;28;20109;-78
2022/02/05 13:01:05;;;;;;;27.63;10.05;;;15.00;91.60;;;;;;5115580;28;20049;-79
2022/02/05 13:04:14;;;;;;;28.48;9.82;;;14.90;91.80;;;;;;5115345;28;20523;-79
2022/02/05 13:07:21;;;;;;;22.88;8.27;;;14.90;92.20;;;;;;5114657;28;20046;-79
2022/02/05 13:10:39;;;;;;;22.88;9.10;;;14.90;92.10;;;;;;5115509;28;20101;-78
2022/02/05 13:13:54;;;;;;;33.35;14.68;;;14.90;92.20;;;;;;5114445;28;20084;-79
2022/02/05 13:16:57;;;;;;;22.67;13.50;;;14.90;92.20;;;;;;5114334;28;20617;-78
2022/02/05 13:26:59;;;;;;;26.85;11.82;;;14.90;92.60;;;;;;5114637;28;20047;-78
2022/02/05 13:40:19;;;;;;;24.10;8.95;;;14.80;93.10;;;;;;5091743;28;20043;-80
2022/02/05 13:43:30;;;;;;;15.45;8.43;;;14.80;93.20;;;;;;5114514;28;20051;-80
2022/02/05 13:46:37;;;;;;;17.17;8.40;;;14.80;93.20;;;;;;5113647;28;20047;-83
2022/02/05 13:49:41;;;;;;;25.70;9.35;;;14.80;93.20;;;;;;5113792;28;20055;-82
2022/02/05 13:52:51;;;;;;;17.80;8.30;;;14.80;93.30;;;;;;5114390;28;20043;-84
2022/02/05 13:55:55;;;;;;;21.85;8.68;;;14.80;93.50;;;;;;5114519;28;20109;-83
2022/02/05 13:59:00;;;;;;;17.15;7.57;;;14.80;93.60;;;;;;5114144;28;20423;-84
2022/02/05 14:02:39;;;;;;;19.20;7.38;;;14.80;93.70;;;;;;5114405;28;20070;-83
2022/02/05 14:05:45;;;;;;;23.45;7.80;;;14.80;93.80;;;;;;5105454;28;20059;-81
2022/02/05 14:08:51;;;;;;;22.83;7.20;;;14.80;93.90;;;;;;5114193;28;20066;-83
2022/02/05 14:11:59;;;;;;;19.15;7.00;;;14.70;94.00;;;;;;5113647;28;20050;-80
2022/02/05 14:15:04;;;;;;;22.48;7.25;;;14.70;94.00;;;;;;5113867;28;20039;-78
2022/02/05 14:18:12;;;;;;;19.27;6.53;;;14.60;94.00;;;;;;5112596;28;20046;-76
2022/02/05 14:21:16;;;;;;;21.10;7.10;;;14.60;94.00;;;;;;5114213;28;20047;-81
2022/02/05 14:24:23;;;;;;;19.10;7.30;;;14.60;94.10;;;;;;5113847;28;20513;-79
2022/02/05 14:27:30;;;;;;;19.00;6.43;;;14.60;94.10;;;;;;5114326;28;20046;-78
2022/02/05 14:30:36;;;;;;;15.63;5.90;;;14.50;94.40;;;;;;5115203;28;20501;-81
2022/02/05 14:34:09;;;;;;;16.83;7.25;;;14.50;94.20;;;;;;5121631;28;20538;-83
2022/02/05 14:40:41;;;;;;;14.48;6.22;;;14.50;94.40;;;;;;5113838;28;20058;-84
2022/02/05 14:43:45;;;;;;;25.05;8.38;;;14.50;94.70;;;;;;5114262;28;20647;-83
2022/02/05 14:46:49;;;;;;;21.27;8.52;;;14.50;94.90;;;;;;5113909;28;20050;-84
2022/02/05 14:49:53;;;;;;;26.42;8.55;;;14.50;95.10;;;;;;5114367;28;20055;-83
2022/02/05 14:52:57;;;;;;;28.75;9.30;;;14.40;95.20;;;;;;5114029;28;20050;-81
2022/02/05 14:56:01;;;;;;;25.30;9.93;;;14.40;95.40;;;;;;5114342;28;20046;-83
2022/02/05 14:59:06;;;;;;;27.55;10.23;;;14.40;95.60;;;;;;5113589;28;20042;-83
2022/02/05 15:02:11;;;;;;;24.33;10.30;;;14.30;95.80;;;;;;5113614;28;20039;-81
2022/02/05 15:05:15;;;;;;;27.77;11.80;;;14.30;95.90;;;;;;5113410;28;20043;-83
2022/02/05 15:08:19;;;;;;;29.92;12.60;;;14.30;96.00;;;;;;5113973;28;20039;-83
2022/02/05 15:11:24;;;;;;;31.67;11.60;;;14.30;96.10;;;;;;5113573;28;20039;-83
2022/02/05 15:14:28;;;;;;;22.63;11.90;;;14.30;96.20;;;;;;5113178;28;20118;-81
2022/02/05 15:17:40;;;;;;;40.30;11.88;;;14.30;96.20;;;;;;5112306;28;20043;-80
2022/02/05 15:20:44;;;;;;;35.28;14.60;;;14.30;96.30;;;;;;5113342;28;20067;-83
2022/02/05 15:23:49;;;;;;;35.35;21.52;;;14.20;96.30;;;;;;5112842;28;20047;-83
2022/02/05 15:26:53;;;;;;;34.28;15.07;;;14.20;96.40;;;;;;5111468;28;20074;-81
2022/02/05 15:29:57;;;;;;;34.03;11.20;;;14.20;96.50;;;;;;5112537;28;20047;-80
2022/02/05 15:33:04;;;;;;;20.98;9.70;;;14.20;96.50;;;;;;5111638;28;20047;-83
2022/02/05 15:36:12;;;;;;;26.42;10.65;;;14.20;96.40;;;;;;5111659;28;20046;-83
2022/02/05 15:45:49;;;;;;;32.63;13.23;;;14.20;96.50;;;;;;5112211;28;20494;-83
2022/02/05 15:48:53;;;;;;;32.65;17.10;;;14.30;96.60;;;;;;5112112;28;20055;-83
2022/02/05 15:52:00;;;;;;;44.55;21.15;;;14.30;96.60;;;;;;5112014;28;20070;-83
2022/02/05 15:55:05;;;;;;;29.30;16.40;;;14.20;96.60;;;;;;5099116;28;20383;-83
2022/02/05 15:58:11;;;;;;;36.90;15.93;;;14.20;96.80;;;;;;5111769;28;20046;-82
2022/02/05 16:01:15;;;;;;;41.78;15.48;;;14.20;96.80;;;;;;5110674;28;20043;-83
2022/02/05 16:04:21;;;;;;;34.60;17.30;;;14.20;96.90;;;;;;5111786;28;20118;-83
2022/02/05 16:07:25;;;;;;;40.63;18.40;;;14.20;97.00;;;;;;5098973;28;20054;-82
2022/02/05 16:10:30;;;;;;;39.90;18.73;;;14.20;97.00;;;;;;5111182;28;20046;-83
2022/02/05 16:13:34;;;;;;;30.98;17.58;;;14.10;97.10;;;;;;5098744;28;20556;-83
2022/02/05 16:16:38;;;;;;;37.95;18.75;;;14.10;97.10;;;;;;5111641;28;20058;-83
2022/02/05 16:19:42;;;;;;;34.00;18.83;;;14.10;97.20;;;;;;5098365;28;20046;-82
2022/02/05 16:22:46;;;;;;;33.80;18.02;;;14.10;97.30;;;;;;5111162;28;20048;-82
2022/02/05 16:25:51;;;;;;;37.63;19.27;;;14.00;97.30;;;;;;5110522;28;20055;-82
2022/02/05 16:28:55;;;;;;;35.70;17.77;;;14.00;97.40;;;;;;5111477;28;20062;-82
2022/02/05 16:31:59;;;;;;;35.72;19.52;;;14.00;97.50;;;;;;5111585;28;20391;-82
2022/02/05 16:35:09;;;;;;;55.38;35.28;;;14.00;97.50;;;;;;5111730;28;20039;-82
2022/02/05 16:38:19;;;;;;;53.70;33.55;;;13.90;97.60;;;;;;5111078;28;20059;-82
2022/02/05 16:41:23;;;;;;;66.57;32.70;;;13.90;98.00;;;;;;5111369;28;20447;-82
2022/02/05 16:44:27;;;;;;;32.95;17.70;;;13.90;97.90;;;;;;5110278;28;20046;-82
2022/02/05 16:47:31;;;;;;;46.20;20.63;;;13.80;98.10;;;;;;5111527;28;20410;-83
2022/02/05 16:50:38;;;;;;;49.65;24.13;;;13.80;98.30;;;;;;5099162;28;20059;-83
2022/02/05 16:53:44;;;;;;;55.08;26.48;;;13.90;98.20;;;;;;5111324;28;20051;-82
2022/02/05 16:56:48;;;;;;;68.65;26.35;;;13.90;98.00;;;;;;5110676;28;20093;-81
2022/02/05 16:59:52;;;;;;;62.60;26.70;;;13.80;98.10;;;;;;5110922;28;20418;-82
2022/02/05 17:02:56;;;;;;;47.88;24.27;;;13.80;98.20;;;;;;5110936;28;20050;-83
2022/02/05 17:06:02;;;;;;;65.00;25.55;;;13.80;98.40;;;;;;5110281;28;20070;-82
2022/02/05 17:09:07;;;;;;;50.03;26.58;;;13.80;98.50;;;;;;5111043;28;20035;-83
2022/02/05 17:12:14;;;;;;;62.42;33.10;;;13.80;98.50;;;;;;5110003;28;20043;-83
2022/02/05 17:15:18;;;;;;;65.45;35.08;;;13.70;98.70;;;;;;5110105;28;20043;-83
2022/02/05 17:18:26;;;;;;;59.35;34.45;;;13.70;98.80;;;;;;5109710;28;20046;-83
2022/02/05 17:21:30;;;;;;;57.95;35.05;;;13.70;99.10;;;;;;5110595;28;20066;-82
2022/02/05 17:24:34;;;;;;;57.10;34.35;;;13.70;98.80;;;;;;5113455;28;20038;-83
2022/02/05 17:27:38;;;;;;;57.95;32.35;;;13.80;99.20;;;;;;5114423;28;20046;-82
2022/02/05 17:30:42;;;;;;;52.42;31.58;;;13.70;98.90;;;;;;5114706;28;20039;-80
2022/02/05 17:33:48;;;;;;;52.70;30.83;;;13.70;99.00;;;;;;5114613;28;20407;-80
2022/02/05 17:36:53;;;;;;;72.13;38.35;;;13.80;99.10;;;;;;5113434;28;20039;-80
2022/02/05 17:39:57;;;;;;;82.82;44.15;;;13.80;99.10;;;;;;5114437;28;20043;-83
2022/02/05 17:43:02;;;;;;;91.70;44.67;;;13.70;99.20;;;;;;5114495;28;20066;-80
2022/02/05 17:46:06;;;;;;;75.40;39.63;;;13.80;99.20;;;;;;5113919;28;20047;-82
2022/02/05 17:49:10;;;;;;;71.53;39.42;;;13.70;99.30;;;;;;5114385;28;20058;-82
2022/02/05 17:52:14;;;;;;;72.22;37.88;;;13.70;99.40;;;;;;5114226;28;20046;-82
2022/02/05 17:55:18;;;;;;;65.07;38.20;;;13.60;99.50;;;;;;5114113;28;20034;-82
2022/02/05 17:58:23;;;;;;;69.85;38.25;;;13.60;99.60;;;;;;5113702;28;20049;-82
2022/02/05 18:01:27;;;;;;;72.90;37.20;;;13.60;99.70;;;;;;5114116;28;20039;-82
2022/02/05 18:04:31;;;;;;;70.20;37.42;;;13.60;99.90;;;;;;5113964;28;20498;-82
2022/02/05 18:17:34;;;;;;;91.28;41.25;;;13.50;99.90;;;;;;5113828;28;20046;-82
2022/02/05 18:20:38;;;;;;;80.00;42.05;;;13.60;99.90;;;;;;5113930;28;20150;-83
2022/02/05 18:23:45;;;;;;;76.18;41.15;;;13.60;99.90;;;;;;5113538;28;20046;-83
2022/02/05 18:26:50;;;;;;;81.82;42.10;;;13.50;99.90;;;;;;5113356;28;20054;-82
2022/02/05 18:29:54;;;;;;;84.95;40.90;;;13.50;99.90;;;;;;5112577;28;20042;-82
2022/02/05 18:32:58;;;;;;;75.10;38.25;;;13.50;99.90;;;;;;5112554;28;20039;-81
2022/02/05 18:36:03;;;;;;;70.30;38.83;;;13.40;99.90;;;;;;5112395;28;20189;-81
2022/02/05 18:39:07;;;;;;;62.03;37.42;;;13.40;99.90;;;;;;5112515;28;20043;-82
2022/02/05 18:42:15;;;;;;;74.43;37.90;;;13.40;99.90;;;;;;5113390;28;20043;-83
2022/02/05 18:45:23;;;;;;;76.90;39.22;;;13.40;99.90;;;;;;5113329;28;20073;-82
2022/02/05 18:48:28;;;;;;;70.75;38.45;;;13.40;99.90;;;;;;5112803;28;20054;-82
2022/02/05 18:51:33;;;;;;;67.18;37.95;;;13.30;99.90;;;;;;5113143;28;20604;-82
2022/02/05 18:54:38;;;;;;;81.55;39.60;;;13.30;99.90;;;;;;5112759;28;20043;-82
2022/02/05 18:57:45;;;;;;;78.18;39.03;;;13.30;99.90;;;;;;5113029;28;20043;-82
2022/02/05 19:11:12;;;;;;;63.42;37.80;;;13.30;99.90;;;;;;5112439;28;20486;-82